Flight Track Log - Related Links

Times and Time Zones

All times are in EDT time to prevent confusion due to time zone crossing. See the N778CA flight status page for this flight to view local times or setup timezone preferences in your user account.

Time Position Orientation Groundspeed Altitude Reporting Facility
EDT Latitude Longitude Course Direction KTS MPH feet Rate Location/Type
Sat 11:27:25 AM 35.4039 -80.7061 North 142 163 1,200  Level Atlanta Center
Sat 11:28:02 AM 35.4225 -80.7028 North 120 138 1,800 981 Climbing Atlanta Center
Sat 11:29:09 AM 35.4597 -80.6911 14° North 113 130 2,900 891 Climbing Atlanta Center
Sat 11:30:10 AM 35.4792 -80.7081 325° Northwest 119 137 3,700 541 Climbing Atlanta Center
Sat 11:31:11 AM 35.4761 -80.7514 265° West 136 157 4,000 141 Climbing Atlanta Center
Sat 11:32:18 AM 35.4756 -80.8078 269° West 145 167 4,000  Level Atlanta Center
Sat 11:33:19 AM 35.4769 -80.8611 272° West 156 180 4,000  Level Atlanta Center
Sat 11:34:14 AM 35.4739 -80.9072 265° West 150 173 4,000  Level Atlanta Center
Sat 11:35:21 AM 35.4733 -80.9658 269° West 148 170 4,000  Level Atlanta Center
Sat 11:36:22 AM 35.4725 -81.0169 269° West 145 167 4,000  Level Atlanta Center
Sat 11:37:29 AM 35.4675 -81.0731 264° West 155 178 4,000  Level Atlanta Center
Sat 11:38:30 AM 35.4394 -81.1175 232° Southwest 161 185 4,000  Level Atlanta Center
Sat 11:39:25 AM 35.4217 -81.1614 244° Southwest 153 176 4,000  Level Atlanta Center
Sat 11:40:32 AM 35.3978 -81.2081 238° Southwest 154 177 4,000  Level Atlanta Center
Sat 11:41:27 AM 35.3800 -81.2494 242° Southwest 153 176 4,000  Level Atlanta Center
Sat 11:42:23 AM 35.3578 -81.2911 237° Southwest 153 176 4,000  Level Atlanta Center
Sat 11:43:23 AM 35.3381 -81.3350 241° Southwest 149 171 4,000  Level Atlanta Center
Sat 11:44:19 AM 35.3158 -81.3764 237° Southwest 151 174 4,000  Level Atlanta Center
Sat 11:45:20 AM 35.2961 -81.4253 244° Southwest 153 176 4,000  Level Atlanta Center
Sat 11:46:21 AM 35.2719 -81.4719 238° Southwest 156 180 4,000  Level Atlanta Center
Sat 11:47:28 AM 35.2481 -81.5211 239° Southwest 154 177 4,000  Level Atlanta Center
Sat 11:48:29 AM 35.2261 -81.5700 241° Southwest 152 175 4,000  Level Atlanta Center
Sat 11:49:30 AM 35.2039 -81.6139 238° Southwest 156 180 4,000  Level Atlanta Center
Sat 11:50:32 AM 35.1839 -81.6578 241° Southwest 150 173 4,000  Level Atlanta Center
Sat 11:52:22 AM 35.1458 -81.7342 239° Southwest 149 171 4,000  Level FAA TRACON SMA TRACON (SMA)
Sat 11:52:42 AM 35.1392 -81.7475 239° Southwest 149 171 4,000  Level FAA TRACON SMA TRACON (SMA)
Sat 11:53:01 AM 35.1308 -81.7636 238° Southwest 147 169 4,000  Level FAA TRACON SMA TRACON (SMA)
Sat 11:53:21 AM 35.1206 -81.7736 219° Southwest 157 181 4,000  Level FAA TRACON SMA TRACON (SMA)
Sat 11:53:41 AM 35.1125 -81.7850 229° Southwest 145 167 4,000  Level FAA TRACON SMA TRACON (SMA)
Sat 11:54:01 AM 35.1011 -81.7992 226° Southwest 151 174 4,000  Level FAA TRACON SMA TRACON (SMA)
Sat 11:54:21 AM 35.0917 -81.8108 225° Southwest 153 176 4,000  Level FAA TRACON SMA TRACON (SMA)
Sat 11:54:41 AM 35.0825 -81.8222 225° Southwest 153 176 4,000  Level FAA TRACON SMA TRACON (SMA)
Sat 11:55:01 AM 35.0742 -81.8336 228° Southwest 150 173 4,000  Level FAA TRACON SMA TRACON (SMA)
Sat 11:55:22 AM 35.0742 -81.8336 195° South 150 173 4,000  Level FAA TRACON SMA TRACON (SMA)
Sat 11:57:00 AM 35.0515 -81.8826 241° Southwest  Level FlightAware Approximate
Sat 12:04:00 PM 34.9306 -82.1425 240° Southwest  Level FlightAware Approximate
Sat 12:05:00 PM 34.9132 -82.1795 240° Southwest  Level FlightAware Approximate
Sat 12:06:00 PM 34.8959 -82.2166 240° Southwest  Level FlightAware Approximate
Sat 12:07:00 PM 34.8786 -82.2536 240° Southwest  Level FlightAware Approximate
Sat 12:08:00 PM 34.8612 -82.2906 240° Southwest  Level FlightAware Approximate
Sat 12:09:00 PM 34.8438 -82.3276 240° Southwest  Level FlightAware Approximate
Sat 12:10:00 PM 34.8333 -82.3500 241° Southwest  Level FlightAware Approximate
Sat 12:11:00 PM 34.8479 -82.3500 241° Southwest  Level Estimated
Sat 12:12:00 PM 34.8479 -82.3500 241° Southwest  Level Estimated
Sat 12:13:00 PM 34.8479 -82.3500 241° Southwest  Level Estimated
Sat 12:14:00 PM 34.8479 -82.3500 241° Southwest  Level Estimated
Sat 12:15:00 PM 34.8479 -82.3500 241° Southwest  Level Estimated

Login

Don't have an account? Register now (free) for customized features, flight alerts, and more!